Time;durP1;ratioP1;P1;durP2;ratioP2;P2;SDS_P1;SDS_P2;PMS_P1;PMS_P2;Temp;Humidity;BMP_temperature;BMP_pressure;BME280_temperature;BME280_humidity;BME280_pressure;Samples;Min_cycle;Max_cycle;Signal;HPM_P1;HPM_P2
2021/07/24 00:00:29;;;;;;;43.08;10.07;;;;;13.70;100972.00;;;;5039354;28;20041;-76
2021/07/24 00:02:56;;;;;;;30.15;9.65;;;;;13.70;100982.00;;;;5037883;28;20610;-77
2021/07/24 00:05:22;;;;;;;21.00;8.82;;;;;13.70;100971.00;;;;5038587;28;20025;-76
2021/07/24 00:07:49;;;;;;;28.77;8.90;;;;;13.80;100990.00;;;;5039031;28;20522;-76
2021/07/24 00:10:15;;;;;;;20.73;8.27;;;;;13.70;100985.00;;;;5033771;28;20499;-75
2021/07/24 00:12:42;;;;;;;32.63;8.73;;;;;13.60;100988.00;;;;5038920;28;20020;-75
2021/07/24 00:15:09;;;;;;;29.92;8.25;;;;;13.60;100958.00;;;;5039699;28;20033;-77
2021/07/24 00:17:35;;;;;;;27.40;8.68;;;;;13.60;100975.00;;;;5035300;28;20040;-76
2021/07/24 00:20:03;;;;;;;30.88;8.95;;;;;13.60;101001.00;;;;5038152;28;20403;-74
2021/07/24 00:22:30;;;;;;;27.85;9.00;;;;;13.50;100971.00;;;;5039475;28;20033;-77
2021/07/24 00:24:56;;;;;;;46.17;9.82;;;;;13.40;100975.00;;;;5033500;28;20061;-75
2021/07/24 00:27:23;;;;;;;38.20;8.75;;;;;13.30;100981.00;;;;5037845;28;20396;-76
2021/07/24 00:29:54;;;;;;;47.90;9.32;;;;;13.20;100974.00;;;;5039020;28;20030;-76
2021/07/24 00:32:21;;;;;;;25.67;8.73;;;;;13.20;100974.00;;;;5034365;28;20491;-75
2021/07/24 00:34:47;;;;;;;35.17;8.93;;;;;13.20;100984.00;;;;5036946;28;20438;-75
2021/07/24 00:37:20;;;;;;;33.15;9.48;;;;;13.10;100983.00;;;;5039176;28;20036;-75
2021/07/24 00:39:47;;;;;;;37.72;8.75;;;;;13.00;100967.00;;;;5046083;28;20586;-77
2021/07/24 00:42:22;;;;;;;37.58;8.70;;;;;12.90;100976.00;;;;5036982;28;20013;-77
2021/07/24 00:44:51;;;;;;;29.80;8.73;;;;;12.80;100982.00;;;;5038444;28;20493;-77
2021/07/24 00:47:28;;;;;;;29.15;8.57;;;;;12.80;100978.00;;;;5035229;28;20116;-77
2021/07/24 00:49:57;;;;;;;32.08;9.52;;;;;12.80;100966.00;;;;5036535;28;20502;-76
2021/07/24 00:52:24;;;;;;;22.50;9.18;;;;;12.80;100963.00;;;;5037535;28;20025;-76
2021/07/24 00:54:50;;;;;;;34.75;9.25;;;;;12.70;100972.00;;;;5038977;28;20029;-76
2021/07/24 00:57:20;;;;;;;21.75;7.97;;;;;12.70;100962.00;;;;5034639;28;20017;-76
2021/07/24 00:59:49;;;;;;;17.17;8.45;;;;;12.70;100968.00;;;;5036985;28;20491;-76
2021/07/24 01:02:16;;;;;;;15.93;7.60;;;;;12.60;100959.00;;;;5045980;28;20029;-76
2021/07/24 01:04:42;;;;;;;19.27;8.20;;;;;12.60;100963.00;;;;5037688;28;20526;-76
2021/07/24 01:07:10;;;;;;;21.88;8.60;;;;;12.50;100967.00;;;;5036686;28;20017;-77
2021/07/24 01:09:37;;;;;;;17.73;7.93;;;;;12.50;100962.00;;;;5034008;28;20057;-76
2021/07/24 01:12:04;;;;;;;22.42;8.13;;;;;12.50;100947.00;;;;5036667;28;20025;-77
2021/07/24 01:14:32;;;;;;;13.05;7.60;;;;;12.40;100970.00;;;;5036813;28;20083;-77
2021/07/24 01:16:59;;;;;;;13.45;8.13;;;;;12.50;100974.00;;;;5036301;28;20061;-76
2021/07/24 01:19:26;;;;;;;22.73;8.55;;;;;12.40;100948.00;;;;5035177;28;20533;-77
2021/07/24 01:21:53;;;;;;;16.83;7.32;;;;;12.40;100957.00;;;;5038113;28;20095;-78
2021/07/24 01:24:20;;;;;;;17.70;7.43;;;;;12.40;100941.00;;;;5036748;28;20037;-76
2021/07/24 01:26:47;;;;;;;17.73;7.57;;;;;12.30;100957.00;;;;5037413;28;20033;-76
2021/07/24 01:29:20;;;;;;;20.17;7.55;;;;;12.20;100970.00;;;;5047020;28;20033;-77
2021/07/24 01:31:47;;;;;;;13.05;7.03;;;;;12.30;100947.00;;;;5046831;28;20077;-77
2021/07/24 01:34:13;;;;;;;10.25;7.32;;;;;12.20;100976.00;;;;5047408;28;20395;-77
2021/07/24 01:36:40;;;;;;;19.45;7.47;;;;;12.20;100965.00;;;;5047690;28;20025;-77
2021/07/24 01:39:09;;;;;;;15.90;7.63;;;;;12.20;100960.00;;;;5048283;28;20029;-77
2021/07/24 01:41:35;;;;;;;12.73;7.97;;;;;12.10;100948.00;;;;5048245;28;20037;-76
2021/07/24 01:44:02;;;;;;;14.05;6.93;;;;;12.20;100960.00;;;;5047510;28;20611;-77
2021/07/24 01:46:29;;;;;;;15.30;7.47;;;;;12.20;100950.00;;;;5030274;28;20040;-77
2021/07/24 01:54:52;;;;;;;21.05;7.57;;;;;12.30;100941.00;;;;5047436;28;20051;-77
2021/07/24 01:57:21;;;;;;;14.55;7.90;;;;;12.30;100954.00;;;;5048335;28;20036;-76
2021/07/24 01:59:51;;;;;;;13.68;8.65;;;;;12.20;100954.00;;;;5047762;28;20114;-76
2021/07/24 02:02:18;;;;;;;21.65;8.55;;;;;12.10;100943.00;;;;5047069;28;20040;-77
2021/07/24 02:04:54;;;;;;;18.65;9.18;;;;;12.00;100974.00;;;;5047590;28;20032;-77
2021/07/24 02:07:23;;;;;;;14.40;8.73;;;;;11.90;100961.00;;;;5046532;28;20044;-76
2021/07/24 02:09:50;;;;;;;18.35;9.40;;;;;11.90;100949.00;;;;5046318;28;20029;-76
2021/07/24 02:12:17;;;;;;;21.13;9.07;;;;;11.90;100963.00;;;;5046886;28;20510;-77
2021/07/24 02:14:43;;;;;;;25.05;9.70;;;;;11.90;100951.00;;;;5045633;28;20025;-77
2021/07/24 02:17:10;;;;;;;18.77;9.20;;;;;11.90;100947.00;;;;5045920;28;20535;-77
2021/07/24 02:19:38;;;;;;;15.85;9.93;;;;;11.80;100943.00;;;;5045867;28;20403;-77
2021/07/24 02:22:04;;;;;;;20.20;10.45;;;;;11.80;100943.00;;;;5047375;28;20029;-76
2021/07/24 02:24:31;;;;;;;13.07;10.30;;;;;11.80;100942.00;;;;5047110;28;20067;-76
2021/07/24 02:26:57;;;;;;;21.90;10.75;;;;;11.90;100959.00;;;;5047411;28;20025;-77
2021/07/24 02:29:24;;;;;;;16.13;10.35;;;;;11.80;100958.00;;;;5046895;28;20519;-76
2021/07/24 02:31:55;;;;;;;17.25;10.00;;;;;11.70;100941.00;;;;5045941;28;20487;-76
2021/07/24 02:34:21;;;;;;;;;;;;;11.70;100955.00;;;;5046915;28;20033;-76
2021/07/24 02:36:48;;;;;;;20.88;11.00;;;;;11.70;100952.00;;;;5047414;28;19982;-76
2021/07/24 02:39:14;;;;;;;21.50;11.88;;;;;11.70;100928.00;;;;5045913;28;20124;-77
2021/07/24 02:41:41;;;;;;;21.00;11.52;;;;;11.60;100944.00;;;;5045428;28;20422;-77
2021/07/24 02:44:07;;;;;;;18.45;11.65;;;;;11.60;100928.00;;;;5046539;28;20124;-77
2021/07/24 02:46:34;;;;;;;23.23;10.68;;;;;11.70;100941.00;;;;5044864;28;20039;-77
2021/07/24 02:49:01;;;;;;;16.92;10.70;;;;;11.70;100953.00;;;;5046933;28;20584;-77
2021/07/24 02:51:28;;;;;;;15.07;9.95;;;;;11.60;100942.00;;;;5045379;28;20060;-77
2021/07/24 02:53:54;;;;;;;19.90;10.75;;;;;11.60;100945.00;;;;5046762;28;20047;-76
2021/07/24 02:56:21;;;;;;;27.20;10.55;;;;;11.60;100937.00;;;;5045755;28;20035;-76
2021/07/24 02:58:47;;;;;;;24.35;10.68;;;;;11.60;100932.00;;;;5046990;28;20032;-76
2021/07/24 03:01:14;;;;;;;20.30;11.05;;;;;11.60;100939.00;;;;5047220;28;20036;-77
2021/07/24 03:03:40;;;;;;;25.20;11.80;;;;;11.50;100922.00;;;;5046637;28;20596;-76
2021/07/24 03:06:07;;;;;;;17.70;10.20;;;;;11.40;100930.00;;;;5046490;28;20064;-77
2021/07/24 03:08:33;;;;;;;15.50;10.65;;;;;11.30;100944.00;;;;5046638;28;20033;-77
2021/07/24 03:11:00;;;;;;;26.55;10.50;;;;;11.20;100927.00;;;;5046506;28;20033;-78
2021/07/24 03:13:26;;;;;;;19.23;10.60;;;;;11.20;100933.00;;;;5044744;28;20095;-76
2021/07/24 03:15:53;;;;;;;19.88;10.60;;;;;11.20;100935.00;;;;5046633;28;20029;-76
2021/07/24 03:18:19;;;;;;;22.58;11.55;;;;;11.20;100941.00;;;;5046936;28;20438;-77
2021/07/24 03:20:46;;;;;;;15.70;10.85;;;;;11.10;100941.00;;;;5046709;28;20021;-77
2021/07/24 03:23:12;;;;;;;19.08;11.00;;;;;11.10;100933.00;;;;5046512;28;20037;-77
2021/07/24 03:25:42;;;;;;;17.80;11.65;;;;;11.00;100947.00;;;;5046075;28;20071;-76
2021/07/24 03:28:09;;;;;;;18.38;10.88;;;;;10.90;100932.00;;;;5046432;28;20029;-78
2021/07/24 03:30:38;;;;;;;17.98;10.95;;;;;10.80;100951.00;;;;5046268;28;20037;-76
2021/07/24 03:33:05;;;;;;;28.88;10.88;;;;;10.70;100947.00;;;;5046229;28;20116;-76
2021/07/24 03:35:31;;;;;;;29.70;11.75;;;;;10.70;100936.00;;;;5046241;28;20437;-76
2021/07/24 03:38:03;;;;;;;26.58;12.05;;;;;10.60;100936.00;;;;5046304;28;20037;-76
2021/07/24 03:40:29;;;;;;;22.23;11.00;;;;;10.60;100911.00;;;;5046932;28;20035;-76
2021/07/24 03:42:56;;;;;;;22.25;11.43;;;;;10.50;100924.00;;;;5045291;28;20045;-76
2021/07/24 03:45:23;;;;;;;19.65;11.25;;;;;10.40;100938.00;;;;5046769;28;20535;-77
2021/07/24 03:47:50;;;;;;;15.05;10.95;;;;;10.40;100922.00;;;;5044700;28;20029;-76
2021/07/24 03:50:16;;;;;;;28.73;12.40;;;;;10.30;100918.00;;;;5045082;28;20078;-77
2021/07/24 03:52:43;;;;;;;20.27;10.90;;;;;10.30;100929.00;;;;5044609;28;20463;-76
2021/07/24 03:55:10;;;;;;;18.08;11.82;;;;;10.20;100921.00;;;;5046379;28;20037;-77
2021/07/24 03:57:37;;;;;;;16.70;10.88;;;;;10.10;100921.00;;;;5046676;28;20029;-76
2021/07/24 04:00:04;;;;;;;18.77;11.73;;;;;10.00;100916.00;;;;5049953;28;20086;-76
2021/07/24 04:02:32;;;;;;;18.27;11.48;;;;;10.00;100905.00;;;;5048280;28;20094;-76
2021/07/24 04:04:59;;;;;;;21.70;11.48;;;;;10.00;100920.00;;;;5050028;28;20043;-76
2021/07/24 04:07:27;;;;;;;21.65;13.23;;;;;10.10;100919.00;;;;5049963;28;20025;-76
2021/07/24 04:09:54;;;;;;;20.02;12.63;;;;;10.00;100921.00;;;;5049685;28;20021;-76
2021/07/24 04:12:21;;;;;;;23.30;13.10;;;;;9.90;100926.00;;;;5048286;28;20029;-76
2021/07/24 04:14:48;;;;;;;18.40;11.75;;;;;10.00;100934.00;;;;5047991;28;20055;-76
2021/07/24 04:17:14;;;;;;;19.10;13.10;;;;;10.00;100923.00;;;;5049689;28;20492;-77
2021/07/24 04:19:42;;;;;;;16.13;12.35;;;;;9.90;100935.00;;;;5048931;28;20040;-76
2021/07/24 04:22:09;;;;;;;19.98;12.15;;;;;10.00;100940.00;;;;5049692;28;20086;-76
2021/07/24 04:24:35;;;;;;;20.13;12.43;;;;;9.90;100906.00;;;;5049619;28;20064;-76
2021/07/24 04:27:02;;;;;;;25.27;14.57;;;;;9.90;100921.00;;;;5049640;28;20104;-76
2021/07/24 04:29:29;;;;;;;28.75;13.68;;;;;9.90;100925.00;;;;5050005;28;20032;-76
2021/07/24 04:31:55;;;;;;;22.40;13.60;;;;;9.90;100937.00;;;;5049783;28;20060;-77
2021/07/24 04:34:22;;;;;;;24.42;14.10;;;;;9.90;100938.00;;;;5048979;28;20037;-76
2021/07/24 04:36:49;;;;;;;25.40;15.20;;;;;9.80;100918.00;;;;5049727;28;20116;-76
2021/07/24 04:39:15;;;;;;;18.52;14.70;;;;;9.80;100945.00;;;;5049373;28;20119;-75
2021/07/24 04:41:42;;;;;;;21.10;14.40;;;;;9.70;100940.00;;;;5047619;28;20033;-76
2021/07/24 04:44:09;;;;;;;24.10;13.88;;;;;9.60;100917.00;;;;5048954;28;20490;-76
2021/07/24 04:46:36;;;;;;;25.27;14.63;;;;;9.70;100911.00;;;;5047162;28;20458;-76
2021/07/24 04:49:02;;;;;;;22.10;13.98;;;;;9.80;100924.00;;;;5048795;28;20033;-77
2021/07/24 04:51:30;;;;;;;21.35;14.95;;;;;9.80;100919.00;;;;5049114;28;20052;-76
2021/07/24 04:53:57;;;;;;;22.15;14.88;;;;;9.70;100909.00;;;;5048895;28;20547;-76
2021/07/24 04:56:24;;;;;;;22.80;14.52;;;;;9.70;100913.00;;;;5049529;28;20118;-77
2021/07/24 04:58:51;;;;;;;24.90;15.50;;;;;9.50;100896.00;;;;5048653;28;20037;-76
2021/07/24 05:01:21;;;;;;;21.35;14.98;;;;;9.40;100884.00;;;;5048258;28;20399;-77
2021/07/24 05:03:49;;;;;;;19.67;14.32;;;;;9.40;100901.00;;;;5048448;28;20127;-76
2021/07/24 05:06:16;;;;;;;21.88;14.95;;;;;9.30;100899.00;;;;5048433;28;20037;-77
2021/07/24 05:08:43;;;;;;;20.20;14.48;;;;;9.30;100893.00;;;;5046998;28;20454;-76
2021/07/24 05:11:09;;;;;;;17.70;13.93;;;;;9.30;100880.00;;;;5047669;28;20032;-77
2021/07/24 05:13:36;;;;;;;22.80;14.18;;;;;9.20;100903.00;;;;5048394;28;20079;-77
2021/07/24 05:16:02;;;;;;;21.73;14.85;;;;;9.20;100920.00;;;;5048705;28;20499;-77
2021/07/24 05:18:29;;;;;;;26.52;15.45;;;;;9.20;100896.00;;;;5048390;28;20032;-76
2021/07/24 05:20:55;;;;;;;20.13;16.05;;;;;9.20;100903.00;;;;5048322;28;20522;-77
2021/07/24 05:23:23;;;;;;;23.77;13.68;;;;;9.10;100898.00;;;;5047382;28;20040;-77
2021/07/24 05:25:50;;;;;;;20.75;15.38;;;;;9.10;100918.00;;;;5048438;28;20021;-77
2021/07/24 05:28:17;;;;;;;21.95;15.98;;;;;9.10;100914.00;;;;5047933;28;20546;-77
2021/07/24 05:30:43;;;;;;;29.88;15.82;;;;;9.20;100920.00;;;;5046920;28;20395;-76
2021/07/24 05:33:10;;;;;;;24.52;15.73;;;;;9.20;100914.00;;;;5048172;28;20048;-78
2021/07/24 05:35:36;;;;;;;21.92;15.02;;;;;9.20;100900.00;;;;5048395;28;20039;-77
2021/07/24 05:38:04;;;;;;;21.00;14.25;;;;;9.10;100896.00;;;;5047128;28;20043;-77
2021/07/24 05:40:30;;;;;;;18.70;14.93;;;;;9.20;100895.00;;;;5048240;28;20033;-75
2021/07/24 05:43:03;;;;;;;27.25;15.23;;;;;9.20;100902.00;;;;5047756;28;20033;-76
2021/07/24 05:45:30;;;;;;;19.95;15.68;;;;;9.10;100912.00;;;;5048049;28;20021;-78
2021/07/24 05:47:56;;;;;;;18.45;15.00;;;;;9.00;100915.00;;;;5046481;28;20487;-76
2021/07/24 05:50:23;;;;;;;21.05;16.38;;;;;8.90;100881.00;;;;5045808;28;20037;-76
2021/07/24 05:52:49;;;;;;;20.83;14.60;;;;;8.90;100886.00;;;;5047578;28;20495;-77
2021/07/24 05:55:16;;;;;;;20.92;16.48;;;;;8.90;100904.00;;;;5045668;28;20403;-78
2021/07/24 05:57:42;;;;;;;22.58;16.05;;;;;9.00;100878.00;;;;5047431;28;20040;-76
2021/07/24 06:00:10;;;;;;;20.83;15.50;;;;;8.90;100887.00;;;;5048433;28;20033;-77
2021/07/24 06:02:36;;;;;;;23.73;15.45;;;;;8.90;100882.00;;;;5047305;28;20459;-76
2021/07/24 06:05:03;;;;;;;26.98;15.90;;;;;8.90;100896.00;;;;5048579;28;20147;-76
2021/07/24 06:07:31;;;;;;;27.58;16.48;;;;;8.90;100882.00;;;;5047435;28;20064;-76
2021/07/24 06:09:58;;;;;;;21.42;15.05;;;;;8.90;100881.00;;;;5047245;28;20067;-77
2021/07/24 06:12:25;;;;;;;23.13;15.90;;;;;8.90;100915.00;;;;5047272;28;20056;-77
2021/07/24 06:14:51;;;;;;;27.38;15.43;;;;;8.80;100911.00;;;;5047311;28;20036;-76
2021/07/24 06:17:18;;;;;;;21.90;15.57;;;;;8.80;100904.00;;;;5047241;28;20495;-76
2021/07/24 06:19:44;;;;;;;21.90;15.98;;;;;8.90;100909.00;;;;5047636;28;20044;-78
2021/07/24 06:22:11;;;;;;;24.38;14.88;;;;;9.00;100889.00;;;;5046125;28;20037;-77
2021/07/24 06:24:38;;;;;;;26.00;15.32;;;;;9.00;100913.00;;;;5047425;28;20017;-76
2021/07/24 06:27:05;;;;;;;25.48;15.00;;;;;9.00;100901.00;;;;5047697;28;20574;-76
2021/07/24 06:29:31;;;;;;;26.20;16.38;;;;;9.00;100920.00;;;;5047468;28;20021;-76
2021/07/24 06:31:58;;;;;;;20.95;15.27;;;;;8.90;100892.00;;;;5047178;28;20099;-76
2021/07/24 06:34:24;;;;;;;20.73;15.23;;;;;8.80;100919.00;;;;5046939;28;20112;-77
2021/07/24 06:36:51;;;;;;;23.25;15.30;;;;;8.80;100899.00;;;;5047343;28;20418;-76
2021/07/24 06:39:19;;;;;;;23.42;16.25;;;;;8.80;100903.00;;;;5046477;28;20040;-76
2021/07/24 06:41:45;;;;;;;26.70;17.30;;;;;8.80;100922.00;;;;5047109;28;20090;-77
2021/07/24 06:44:12;;;;;;;21.42;15.38;;;;;8.70;100899.00;;;;5045517;28;20036;-75
2021/07/24 06:46:38;;;;;;;19.33;14.20;;;;;8.70;100883.00;;;;5046211;28;20029;-77
2021/07/24 06:49:05;;;;;;;21.25;14.32;;;;;8.70;100899.00;;;;5045637;28;20384;-76
2021/07/24 06:51:31;;;;;;;22.08;15.90;;;;;8.60;100911.00;;;;5045056;28;20029;-77
2021/07/24 06:53:58;;;;;;;25.15;16.92;;;;;8.60;100916.00;;;;5046901;28;21025;-77
2021/07/24 06:56:24;;;;;;;23.58;16.63;;;;;8.60;100918.00;;;;5046863;28;20033;-76
2021/07/24 06:58:51;;;;;;;26.02;15.48;;;;;8.60;100900.00;;;;5047211;28;20155;-76
2021/07/24 07:01:18;;;;;;;38.78;17.88;;;;;8.60;100926.00;;;;5046530;28;20029;-76
2021/07/24 07:03:44;;;;;;;24.63;17.95;;;;;8.50;100907.00;;;;5046578;28;20107;-77
2021/07/24 07:06:13;;;;;;;27.92;18.65;;;;;8.40;100913.00;;;;5046523;28;20108;-77
2021/07/24 07:08:40;;;;;;;23.17;16.80;;;;;8.40;100932.00;;;;5046779;28;20029;-76
2021/07/24 07:11:07;;;;;;;21.75;16.75;;;;;8.40;100930.00;;;;5045711;28;20111;-76
2021/07/24 07:13:34;;;;;;;26.40;17.42;;;;;8.30;100940.00;;;;5046997;28;20033;-77
2021/07/24 07:16:05;;;;;;;25.95;16.88;;;;;8.40;100907.00;;;;5047085;28;20037;-76
2021/07/24 07:18:32;;;;;;;25.92;17.83;;;;;8.40;100909.00;;;;5045407;28;20056;-77
2021/07/24 07:20:59;;;;;;;24.30;17.75;;;;;8.30;100929.00;;;;5045101;28;20507;-77
2021/07/24 07:23:25;;;;;;;23.88;16.83;;;;;8.40;100912.00;;;;5045296;28;20082;-77
2021/07/24 07:25:52;;;;;;;21.67;16.52;;;;;8.30;100895.00;;;;5046658;28;20028;-76
2021/07/24 07:28:18;;;;;;;22.95;17.75;;;;;8.40;100933.00;;;;5046454;28;20029;-76
2021/07/24 07:30:45;;;;;;;23.05;16.92;;;;;8.40;100923.00;;;;5046426;28;20029;-75
2021/07/24 07:33:12;;;;;;;25.35;16.50;;;;;8.30;100932.00;;;;5047033;28;20563;-76
2021/07/24 07:35:39;;;;;;;25.23;17.63;;;;;8.30;100919.00;;;;5048950;28;20495;-76
2021/07/24 07:38:05;;;;;;;30.15;17.02;;;;;8.30;100913.00;;;;5050583;28;20029;-76
2021/07/24 07:40:37;;;;;;;23.30;16.95;;;;;8.30;100930.00;;;;5050525;28;20556;-77
2021/07/24 07:43:05;;;;;;;28.55;17.10;;;;;8.20;100930.00;;;;5050359;28;20017;-76
2021/07/24 07:45:31;;;;;;;24.88;16.42;;;;;8.20;100944.00;;;;5048356;28;20503;-76
2021/07/24 07:47:58;;;;;;;23.38;17.65;;;;;8.20;100922.00;;;;5050017;28;20136;-77
2021/07/24 07:50:24;;;;;;;21.60;16.20;;;;;8.10;100930.00;;;;5050365;28;20099;-76
2021/07/24 07:52:51;;;;;;;28.08;16.85;;;;;8.10;100921.00;;;;5050228;28;20056;-76
2021/07/24 07:55:17;;;;;;;24.13;17.13;;;;;8.20;100919.00;;;;5050283;28;20484;-77
2021/07/24 07:57:44;;;;;;;24.70;16.88;;;;;8.30;100936.00;;;;5050222;28;20033;-76
2021/07/24 08:00:11;;;;;;;24.00;16.60;;;;;8.30;100912.00;;;;5050187;28;20032;-78
2021/07/24 08:02:38;;;;;;;23.85;16.48;;;;;8.40;100929.00;;;;5047568;28;20048;-77
2021/07/24 08:05:05;;;;;;;24.63;15.88;;;;;8.30;100931.00;;;;5048657;28;20384;-77
2021/07/24 08:07:31;;;;;;;26.75;18.08;;;;;8.20;100931.00;;;;5048261;28;21138;-76
2021/07/24 08:09:59;;;;;;;28.83;16.20;;;;;8.30;100937.00;;;;5050091;28;20036;-77
2021/07/24 08:12:26;;;;;;;27.48;17.33;;;;;8.30;100927.00;;;;5049840;28;20546;-76
2021/07/24 08:14:53;;;;;;;30.88;16.20;;;;;8.30;100934.00;;;;5049471;28;20075;-76
2021/07/24 08:17:21;;;;;;;21.45;15.98;;;;;8.40;100938.00;;;;5049410;28;20040;-76
2021/07/24 08:19:48;;;;;;;27.88;15.95;;;;;8.50;100941.00;;;;5049801;28;20021;-75
2021/07/24 08:22:14;;;;;;;26.00;16.60;;;;;8.60;100944.00;;;;5048004;28;20463;-78
2021/07/24 08:24:41;;;;;;;24.63;18.10;;;;;8.60;100951.00;;;;5049463;28;20067;-76
2021/07/24 08:27:08;;;;;;;22.88;16.27;;;;;8.50;100932.00;;;;5049789;28;20111;-77
2021/07/24 08:29:34;;;;;;;24.38;18.58;;;;;8.50;100936.00;;;;5049063;28;20538;-76
2021/07/24 08:32:01;;;;;;;26.55;17.95;;;;;8.50;100935.00;;;;5049246;28;20032;-77
2021/07/24 08:34:27;;;;;;;27.00;17.13;;;;;8.50;100934.00;;;;5049121;28;20037;-77
2021/07/24 08:36:54;;;;;;;27.63;18.00;;;;;8.40;100953.00;;;;5049294;28;20025;-77
2021/07/24 08:39:20;;;;;;;27.58;17.42;;;;;8.30;100942.00;;;;5047819;28;20036;-77
2021/07/24 08:41:47;;;;;;;28.17;17.92;;;;;8.20;100924.00;;;;5049770;28;20037;-76
2021/07/24 08:44:13;;;;;;;33.67;16.95;;;;;8.20;100918.00;;;;5048117;28;20021;-77
2021/07/24 08:46:40;;;;;;;24.17;17.27;;;;;8.10;100949.00;;;;5048792;28;20029;-76
2021/07/24 08:49:06;;;;;;;21.20;17.30;;;;;8.00;100922.00;;;;5048911;28;20024;-76
2021/07/24 08:51:36;;;;;;;33.25;18.23;;;;;8.00;100918.00;;;;5049311;28;20064;-76
2021/07/24 08:54:05;;;;;;;22.33;17.95;;;;;7.90;100919.00;;;;5047515;28;20052;-78
2021/07/24 08:56:35;;;;;;;23.90;17.00;;;;;7.90;100920.00;;;;5047360;28;20491;-77
2021/07/24 08:59:03;;;;;;;23.35;17.15;;;;;8.00;100928.00;;;;5048706;28;20033;-76
2021/07/24 09:01:34;;;;;;;23.30;17.08;;;;;8.00;100957.00;;;;5049149;28;20075;-76
2021/07/24 09:04:05;;;;;;;24.38;17.25;;;;;8.00;100958.00;;;;5048687;28;20052;-76
2021/07/24 09:06:31;;;;;;;25.67;17.43;;;;;8.10;100926.00;;;;5047234;28;20040;-77
2021/07/24 09:08:58;;;;;;;24.92;18.25;;;;;7.90;100927.00;;;;5048850;28;20109;-77
2021/07/24 09:11:25;;;;;;;32.88;19.02;;;;;7.90;100929.00;;;;5048752;28;20029;-75
2021/07/24 09:13:52;;;;;;;24.10;17.35;;;;;8.00;100940.00;;;;5048826;28;20029;-76
2021/07/24 09:16:18;;;;;;;23.38;18.77;;;;;8.00;100951.00;;;;5048111;28;20040;-78
2021/07/24 09:18:48;;;;;;;25.33;19.08;;;;;8.00;100944.00;;;;5048608;28;20061;-76
2021/07/24 09:21:17;;;;;;;26.38;19.08;;;;;8.00;100943.00;;;;5048330;28;20079;-77
2021/07/24 09:23:47;;;;;;;23.02;18.63;;;;;8.00;100953.00;;;;5046905;28;20084;-77
2021/07/24 09:26:34;;;;;;;26.20;18.70;;;;;7.90;100957.00;;;;5047068;28;20025;-76
2021/07/24 09:29:14;;;;;;;24.27;18.42;;;;;8.00;100958.00;;;;5049309;28;20037;-78
2021/07/24 09:31:45;;;;;;;28.85;19.65;;;;;8.10;100967.00;;;;5048631;28;20065;-78
2021/07/24 09:34:13;;;;;;;26.33;18.77;;;;;8.10;100946.00;;;;5048552;28;20024;-75
2021/07/24 09:36:41;;;;;;;31.92;18.98;;;;;8.10;100948.00;;;;5048351;28;20277;-76
2021/07/24 09:39:11;;;;;;;24.88;18.45;;;;;8.10;100970.00;;;;5048088;28;20060;-77
2021/07/24 09:41:45;;;;;;;25.17;20.20;;;;;8.10;100967.00;;;;5046598;28;20033;-78
2021/07/24 09:44:27;;;;;;;30.75;19.60;;;;;8.10;100950.00;;;;5047844;28;20028;-76
2021/07/24 09:46:57;;;;;;;21.52;17.05;;;;;8.00;100944.00;;;;5046689;28;20500;-76
2021/07/24 09:49:38;;;;;;;32.78;18.65;;;;;7.90;100977.00;;;;5047670;28;20107;-77
2021/07/24 09:52:12;;;;;;;32.70;18.33;;;;;7.90;100983.00;;;;5047897;28;20021;-75
2021/07/24 09:54:39;;;;;;;29.13;17.95;;;;;8.00;100983.00;;;;5047323;28;20127;-77
2021/07/24 09:57:06;;;;;;;23.00;17.65;;;;;8.00;100960.00;;;;5046681;28;20043;-77
2021/07/24 09:59:33;;;;;;;26.88;18.30;;;;;7.90;100988.00;;;;5047266;28;20434;-75
2021/07/24 10:02:02;;;;;;;26.35;18.52;;;;;7.90;100987.00;;;;5043705;28;20408;-77
2021/07/24 10:04:39;;;;;;;26.45;18.45;;;;;7.90;100999.00;;;;5046935;28;20053;-77
2021/07/24 10:07:07;;;;;;;24.67;17.52;;;;;8.00;100984.00;;;;5046648;28;20028;-76
2021/07/24 10:09:35;;;;;;;28.23;19.85;;;;;7.90;100971.00;;;;5046308;28;20499;-76
2021/07/24 10:12:03;;;;;;;28.75;18.50;;;;;8.00;100990.00;;;;5046824;28;20076;-76
2021/07/24 10:14:31;;;;;;;28.98;18.65;;;;;8.00;100981.00;;;;5047209;28;20028;-75
2021/07/24 10:17:01;;;;;;;37.40;19.60;;;;;8.00;100981.00;;;;5047222;28;20075;-76
2021/07/24 10:19:28;;;;;;;33.40;18.85;;;;;8.00;101011.00;;;;5046274;28;20029;-78
2021/07/24 10:21:57;;;;;;;24.77;18.13;;;;;8.00;100987.00;;;;5045242;28;20043;-76
2021/07/24 10:24:24;;;;;;;33.40;18.25;;;;;8.00;100994.00;;;;5047383;28;20035;-76
2021/07/24 10:26:57;;;;;;;36.95;20.00;;;;;8.00;101011.00;;;;5047151;28;20037;-77
2021/07/24 10:29:49;;;;;;;39.13;21.35;;;;;8.10;101020.00;;;;5046353;28;20036;-76
2021/07/24 10:32:18;;;;;;;31.65;19.02;;;;;8.20;100985.00;;;;5042633;28;20064;-75
2021/07/24 10:34:51;;;;;;;33.72;19.10;;;;;8.30;101004.00;;;;5046190;28;20025;-77
2021/07/24 10:37:30;;;;;;;33.42;18.73;;;;;8.30;101020.00;;;;5047106;28;20096;-72
2021/07/24 10:40:21;;;;;;;35.75;18.73;;;;;8.40;101017.00;;;;5045727;28;20032;-75
2021/07/24 10:42:50;;;;;;;32.40;18.20;;;;;8.50;101019.00;;;;5046262;28;20048;-77
2021/07/24 10:45:32;;;;;;;23.70;17.17;;;;;8.60;101021.00;;;;5044556;28;20078;-76
2021/07/24 10:48:14;;;;;;;30.98;18.75;;;;;9.40;100960.00;;;;5046732;28;20031;-76
2021/07/24 10:51:02;;;;;;;44.85;17.25;;;;;10.40;100911.00;;;;5045072;28;20466;-76
2021/07/24 10:54:05;;;;;;;42.60;18.58;;;;;11.90;100898.00;;;;5046517;28;20025;-76
2021/07/24 10:56:39;;;;;;;36.80;16.55;;;;;12.30;100904.00;;;;5046487;28;20076;-78
2021/07/24 10:59:15;;;;;;;29.50;15.68;;;;;12.80;100870.00;;;;5047057;28;20036;-76
2021/07/24 11:01:48;;;;;;;30.17;15.77;;;;;13.00;100915.00;;;;5046030;28;20037;-76
2021/07/24 11:04:37;;;;;;;24.30;15.95;;;;;13.20;100919.00;;;;5045144;28;20056;-77
2021/07/24 11:07:23;;;;;;;23.55;15.95;;;;;13.70;100914.00;;;;5046475;28;20036;-77
2021/07/24 11:09:55;;;;;;;28.77;16.65;;;;;13.50;100953.00;;;;5045102;28;20025;-76
2021/07/24 11:12:36;;;;;;;31.35;17.20;;;;;14.10;100872.00;;;;5046789;28;20106;-76
2021/07/24 11:15:09;;;;;;;26.65;17.63;;;;;14.10;100902.00;;;;5046564;28;20040;-77
2021/07/24 11:17:36;;;;;;;29.60;17.60;;;;;14.10;100866.00;;;;5047161;28;20056;-76
2021/07/24 11:20:05;;;;;;;32.00;15.80;;;;;14.70;100859.00;;;;5046007;28;20021;-77
2021/07/24 11:22:32;;;;;;;30.10;17.40;;;;;15.30;100859.00;;;;5046031;28;20029;-77
2021/07/24 11:24:59;;;;;;;23.85;17.10;;;;;16.30;100843.00;;;;5046857;28;20040;-77
2021/07/24 11:27:32;;;;;;;36.20;17.92;;;;;17.00;100857.00;;;;5047017;28;20033;-78
2021/07/24 11:30:08;;;;;;;34.05;18.42;;;;;16.20;100933.00;;;;5046429;28;20070;-77
2021/07/24 11:32:40;;;;;;;39.03;18.05;;;;;17.30;100856.00;;;;5045167;28;20041;-77
2021/07/24 11:35:09;;;;;;;32.47;19.17;;;;;17.80;100854.00;;;;5045751;28;20036;-76
2021/07/24 11:37:39;;;;;;;44.55;19.63;;;;;18.30;100859.00;;;;5046281;28;20029;-76
2021/07/24 11:40:14;;;;;;;30.35;17.80;;;;;18.70;100849.00;;;;5047010;28;20399;-77
2021/07/24 11:42:41;;;;;;;30.23;16.90;;;;;18.80;100820.00;;;;5044913;28;20029;-78
2021/07/24 11:45:08;;;;;;;37.22;17.55;;;;;18.80;100831.00;;;;5046385;28;20028;-78
2021/07/24 11:47:35;;;;;;;36.70;16.33;;;;;18.90;100852.00;;;;5046204;28;20033;-78
2021/07/24 11:50:18;;;;;;;48.05;19.33;;;;;19.80;100834.00;;;;5046520;28;20041;-77
2021/07/24 11:52:53;;;;;;;36.55;17.42;;;;;20.10;100838.00;;;;5044589;28;20042;-77
2021/07/24 11:55:32;;;;;;;51.92;18.35;;;;;20.30;100850.00;;;;5045702;28;20033;-77
2021/07/24 11:58:05;;;;;;;34.58;17.48;;;;;20.40;100861.00;;;;5044600;28;20123;-77
2021/07/24 12:00:38;;;;;;;86.18;22.25;;;;;20.60;100870.00;;;;5045998;28;20311;-78
2021/07/24 12:03:19;;;;;;;29.35;17.25;;;;;21.00;100863.00;;;;5044585;28;20211;-76
2021/07/24 12:06:02;;;;;;;29.05;16.50;;;;;22.00;100858.00;;;;5046410;28;20074;-77
2021/07/24 12:08:30;;;;;;;35.53;18.90;;;;;22.60;100870.00;;;;5045401;28;20123;-78